createdAt,value
2023-03-11T00:01:00.736Z,0.65
2023-03-11T00:03:31.005Z,0.65
2023-03-11T00:06:02.275Z,0.66
2023-03-11T00:08:32.453Z,0.63
2023-03-11T00:11:02.634Z,0.63
2023-03-11T00:13:33.117Z,0.59
2023-03-11T00:16:03.573Z,0.64
2023-03-11T00:18:33.742Z,0.58
2023-03-11T00:21:04.086Z,0.63
2023-03-11T00:23:35.765Z,0.62
2023-03-11T00:26:05.895Z,0.65
2023-03-11T00:28:36.328Z,0.63
2023-03-11T00:31:06.488Z,0.63
2023-03-11T00:33:36.729Z,0.64
2023-03-11T00:36:07.374Z,0.66
2023-03-11T00:38:37.661Z,0.62
2023-03-11T00:41:08.889Z,0.59
2023-03-11T00:43:41.135Z,0.57
2023-03-11T00:46:15.177Z,0.56
2023-03-11T00:48:45.376Z,0.56
2023-03-11T00:51:16.541Z,0.61
2023-03-11T00:53:46.665Z,0.57
2023-03-11T00:56:17.566Z,0.55
2023-03-11T00:58:47.741Z,0.56
2023-03-11T01:01:20.328Z,0.57
2023-03-11T01:03:50.768Z,0.56
2023-03-11T01:06:21.335Z,0.55
2023-03-11T01:08:51.473Z,0.55
2023-03-11T01:11:21.630Z,0.58
2023-03-11T01:13:51.953Z,0.51
2023-03-11T01:16:22.191Z,0.48
2023-03-11T01:18:52.392Z,0.43
2023-03-11T01:21:22.560Z,0.41
2023-03-11T01:23:52.722Z,0.41
2023-03-11T01:26:22.962Z,0.42
2023-03-11T01:28:53.104Z,0.47
2023-03-11T01:31:23.417Z,0.45
2023-03-11T01:33:53.721Z,0.43
2023-03-11T01:36:23.947Z,0.42
2023-03-11T01:38:54.103Z,0.44
2023-03-11T01:41:24.294Z,0.41
2023-03-11T01:43:55.531Z,0.43
2023-03-11T01:46:31.285Z,0.48
2023-03-11T01:49:03.428Z,0.45
2023-03-11T01:51:43.102Z,0.44
2023-03-11T01:54:23.609Z,0.43
2023-03-11T01:56:55.793Z,0.48
2023-03-11T01:59:31.251Z,0.44
2023-03-11T02:02:19.860Z,0.46
2023-03-11T02:04:51.080Z,0.42
2023-03-11T02:07:21.345Z,0.30
2023-03-11T02:09:51.470Z,0.26
2023-03-11T02:12:21.823Z,0.24
2023-03-11T02:14:54.751Z,0.13
2023-03-11T02:17:25.368Z,0.16
2023-03-11T02:20:23.009Z,0.19
2023-03-11T02:22:57.309Z,0.12
2023-03-11T02:25:53.159Z,0.12
2023-03-11T02:28:24.312Z,0.12
2023-03-11T02:30:57.194Z,0.11
2023-03-11T02:33:31.207Z,0.08
2023-03-11T02:36:01.296Z,0.01
2023-03-11T02:38:31.519Z,0.01
2023-03-11T02:41:02.512Z,-0.01
2023-03-11T02:43:42.103Z,-0.05
2023-03-11T02:46:14.369Z,-0.12
2023-03-11T02:48:45.043Z,-0.13
2023-03-11T02:51:15.244Z,-0.19
2023-03-11T02:53:49.786Z,-0.20
2023-03-11T02:56:20.059Z,-0.28
2023-03-11T02:58:50.187Z,-0.24
2023-03-11T03:01:20.368Z,-0.26
2023-03-11T03:03:50.829Z,-0.28
2023-03-11T03:06:21.069Z,-0.29
2023-03-11T03:08:51.297Z,-0.34
2023-03-11T03:11:21.464Z,-0.37
2023-03-11T03:13:51.635Z,-0.38
2023-03-11T03:16:21.907Z,-0.38
2023-03-11T03:18:52.867Z,-0.39
2023-03-11T03:21:23.051Z,-0.47
2023-03-11T03:23:53.250Z,-0.44
2023-03-11T03:26:23.357Z,-0.45
2023-03-11T03:28:53.536Z,-0.50
2023-03-11T03:31:23.870Z,-0.52
2023-03-11T03:33:54.041Z,-0.50
2023-03-11T03:36:24.573Z,-0.52
2023-03-11T03:38:56.306Z,-0.62
2023-03-11T03:41:26.506Z,-0.57
2023-03-11T03:43:56.681Z,-0.64
2023-03-11T03:46:26.936Z,-0.70
2023-03-11T03:48:57.200Z,-0.73
2023-03-11T03:51:27.326Z,-0.75
2023-03-11T03:53:57.470Z,-0.78
2023-03-11T03:56:27.737Z,-0.83
2023-03-11T03:58:57.977Z,-0.83
2023-03-11T04:01:28.238Z,-0.84
2023-03-11T04:03:58.483Z,-0.83
2023-03-11T04:06:29.035Z,-0.82
2023-03-11T04:08:59.271Z,-0.81
2023-03-11T04:11:29.467Z,-0.80
2023-03-11T04:13:59.618Z,-0.78
2023-03-11T04:16:29.963Z,-0.81
2023-03-11T04:19:00.070Z,-0.78
2023-03-11T04:21:32.596Z,-0.80
2023-03-11T04:24:04.960Z,-0.82
2023-03-11T04:26:39.731Z,-0.80
2023-03-11T04:29:10.119Z,-0.84
2023-03-11T04:31:40.257Z,-0.85
2023-03-11T04:34:11.087Z,-0.84
2023-03-11T04:36:41.764Z,-0.83
2023-03-11T04:39:12.023Z,-0.88
2023-03-11T04:41:42.217Z,-0.84
2023-03-11T04:44:12.588Z,-0.82
2023-03-11T04:46:43.426Z,-0.80
2023-03-11T04:49:13.676Z,-0.80
2023-03-11T04:51:44.098Z,-0.80
2023-03-11T04:54:14.397Z,-0.83
2023-03-11T04:56:44.568Z,-0.84
2023-03-11T04:59:14.673Z,-0.83
2023-03-11T05:01:44.868Z,-0.92
2023-03-11T05:04:15.339Z,-0.85
2023-03-11T05:06:45.542Z,-0.80
2023-03-11T05:09:15.659Z,-0.77
2023-03-11T05:11:45.922Z,-0.77
2023-03-11T05:14:16.046Z,-0.72
2023-03-11T05:16:46.231Z,-0.72
2023-03-11T05:19:31.541Z,-0.70
2023-03-11T05:22:02.884Z,-0.67
2023-03-11T05:24:33.702Z,-0.65
2023-03-11T05:27:04.496Z,-0.60
2023-03-11T05:29:34.809Z,-0.67
2023-03-11T05:32:05.539Z,-0.75
2023-03-11T05:34:35.813Z,-0.65
2023-03-11T05:37:06.026Z,-0.66
2023-03-11T05:39:37.924Z,-0.65
2023-03-11T05:42:08.766Z,-0.60
2023-03-11T05:44:38.943Z,-0.71
2023-03-11T05:47:09.148Z,-0.60
2023-03-11T05:49:39.376Z,-0.57
2023-03-11T05:52:11.921Z,-0.58
2023-03-11T05:54:42.335Z,-0.56
2023-03-11T05:57:12.727Z,-0.57
2023-03-11T05:59:42.899Z,-0.54
2023-03-11T06:02:13.122Z,-0.50
2023-03-11T06:04:43.585Z,-0.49
2023-03-11T06:07:15.763Z,-0.55
2023-03-11T06:09:46.209Z,-0.52
2023-03-11T06:12:16.510Z,-0.52
2023-03-11T06:14:47.201Z,-0.49
2023-03-11T06:17:17.302Z,-0.43
2023-03-11T06:19:47.461Z,-0.41
2023-03-11T06:22:17.702Z,-0.41
2023-03-11T06:24:47.898Z,-0.42
2023-03-11T06:27:18.791Z,-0.42
2023-03-11T06:29:52.790Z,-0.42
2023-03-11T06:32:23.077Z,-0.46
2023-03-11T06:34:53.570Z,-0.44
2023-03-11T06:37:25.353Z,-0.44
2023-03-11T06:39:55.795Z,-0.52
2023-03-11T06:42:26.918Z,-0.51
2023-03-11T06:44:57.319Z,-0.48
2023-03-11T06:47:28.001Z,-0.58
2023-03-11T06:49:58.388Z,-0.52
2023-03-11T06:52:29.443Z,-0.49
2023-03-11T06:54:59.616Z,-0.42
2023-03-11T06:57:31.130Z,-0.38
2023-03-11T07:00:01.578Z,-0.42
2023-03-11T07:02:31.936Z,-0.38
2023-03-11T07:05:02.452Z,-0.40
2023-03-11T07:07:32.612Z,-0.40
2023-03-11T07:10:02.780Z,-0.51
2023-03-11T07:12:33.055Z,-0.38
2023-03-11T07:15:04.193Z,-0.39
2023-03-11T07:17:36.183Z,-0.38
2023-03-11T07:20:07.376Z,-0.39
2023-03-11T07:22:37.688Z,-0.33
2023-03-11T07:25:08.429Z,-0.35
2023-03-11T07:27:38.735Z,-0.28
2023-03-11T07:30:10.125Z,-0.29
2023-03-11T07:32:41.717Z,-0.29
2023-03-11T07:35:12.045Z,-0.26
2023-03-11T07:37:42.280Z,-0.24
2023-03-11T07:40:12.803Z,-0.25
2023-03-11T07:42:43.095Z,-0.29
2023-03-11T07:45:13.240Z,-0.27
2023-03-11T07:47:44.050Z,-0.26
2023-03-11T07:50:14.494Z,-0.23
2023-03-11T07:52:44.903Z,-0.25
2023-03-11T07:55:15.778Z,-0.27
2023-03-11T07:57:49.127Z,-0.34
2023-03-11T08:00:21.710Z,-0.20
2023-03-11T08:02:59.114Z,-0.20
2023-03-11T08:05:34.381Z,-0.26
2023-03-11T08:08:04.700Z,-0.19
2023-03-11T08:10:37.901Z,-0.13
2023-03-11T08:13:08.552Z,-0.05
2023-03-11T08:15:38.785Z,-0.12
2023-03-11T08:18:11.096Z,-0.06
2023-03-11T08:20:41.665Z,-0.01
2023-03-11T08:23:11.998Z,0.06
2023-03-11T08:25:42.529Z,0.07
2023-03-11T08:28:12.751Z,0.05
2023-03-11T08:30:43.020Z,-0.03
2023-03-11T08:33:13.245Z,-0.12
2023-03-11T08:35:43.515Z,-0.01
2023-03-11T08:38:13.790Z,-0.11
2023-03-11T08:40:43.995Z,-0.18
2023-03-11T08:43:15.533Z,-0.04
2023-03-11T08:45:45.800Z,-0.09
2023-03-11T08:48:16.019Z,-0.12
2023-03-11T08:50:53.802Z,-0.06
2023-03-11T08:53:25.614Z,-0.09
2023-03-11T08:55:55.876Z,-0.10
2023-03-11T08:58:26.094Z,-0.10
2023-03-11T09:00:57.501Z,-0.19
2023-03-11T09:03:27.727Z,-0.24
2023-03-11T09:06:02.097Z,-0.23
2023-03-11T09:08:32.947Z,-0.19
2023-03-11T09:11:04.173Z,-0.18
2023-03-11T09:13:34.364Z,-0.14
2023-03-11T09:16:06.113Z,-0.15
2023-03-11T09:18:36.396Z,-0.03
2023-03-11T09:21:06.637Z,-0.06
2023-03-11T09:23:36.768Z,0.01
2023-03-11T09:26:07.196Z,-0.07
2023-03-11T09:28:37.360Z,-0.01
2023-03-11T09:31:07.774Z,0.01
2023-03-11T09:33:42.407Z,-0.03
2023-03-11T09:36:15.517Z,-0.02
2023-03-11T09:38:45.904Z,-0.02
2023-03-11T09:41:29.906Z,-0.09
2023-03-11T09:44:21.483Z,-0.05
2023-03-11T09:47:14.867Z,-0.02
2023-03-11T09:50:04.959Z,0.14
2023-03-11T09:52:51.020Z,0.15
2023-03-11T09:55:37.605Z,0.13
2023-03-11T09:58:28.052Z,0.10
2023-03-11T10:00:58.245Z,0.06
2023-03-11T10:03:33.206Z,0.16
2023-03-11T10:06:27.002Z,0.18
2023-03-11T10:09:06.240Z,0.26
2023-03-11T10:11:59.086Z,0.30
2023-03-11T10:14:38.060Z,0.35
2023-03-11T10:17:29.868Z,0.37
2023-03-11T10:20:25.747Z,0.29
2023-03-11T10:23:04.992Z,0.28
2023-03-11T10:26:06.310Z,0.28
2023-03-11T10:28:40.216Z,0.33
2023-03-11T10:31:20.374Z,0.37
2023-03-11T10:34:22.004Z,0.28
2023-03-11T10:37:05.071Z,0.21
2023-03-11T10:39:35.364Z,0.25
2023-03-11T10:42:11.932Z,0.16
2023-03-11T10:44:43.173Z,0.09
2023-03-11T10:47:23.202Z,0.24
2023-03-11T10:49:53.937Z,0.30
2023-03-11T10:52:24.119Z,0.35
2023-03-11T10:55:02.983Z,0.43
2023-03-11T10:57:35.438Z,0.50
2023-03-11T11:00:17.478Z,0.50
2023-03-11T11:02:54.171Z,0.56
2023-03-11T11:05:33.405Z,0.54
2023-03-11T11:08:05.100Z,0.54
2023-03-11T11:10:37.445Z,0.51
2023-03-11T11:13:13.815Z,0.49
2023-03-11T11:16:06.265Z,0.41
2023-03-11T11:18:49.471Z,0.39
2023-03-11T11:21:35.449Z,0.34
2023-03-11T11:24:11.672Z,0.42
2023-03-11T11:26:41.870Z,0.44
2023-03-11T11:29:12.610Z,0.47
2023-03-11T11:31:45.206Z,0.48
2023-03-11T11:34:35.623Z,0.44
2023-03-11T11:37:07.061Z,0.42
2023-03-11T11:39:53.524Z,0.40
2023-03-11T11:42:28.728Z,0.45
2023-03-11T11:45:21.700Z,0.57
2023-03-11T11:48:01.363Z,0.60
2023-03-11T11:50:43.654Z,0.64
2023-03-11T11:53:29.665Z,0.70
2023-03-11T11:56:01.536Z,0.70
2023-03-11T11:58:31.944Z,0.82
2023-03-11T12:01:38.325Z,0.87
2023-03-11T12:04:17.256Z,0.87
2023-03-11T12:07:13.528Z,0.80
2023-03-11T12:09:53.078Z,0.82
2023-03-11T12:12:50.536Z,0.82
2023-03-11T12:15:22.886Z,0.92
2023-03-11T12:17:59.650Z,1.03
2023-03-11T12:20:39.394Z,1.08
2023-03-11T12:23:25.047Z,1.07
2023-03-11T12:26:24.148Z,1.03
2023-03-11T12:29:09.040Z,1.00
2023-03-11T12:31:42.018Z,0.99
2023-03-11T12:34:17.736Z,0.97
2023-03-11T12:36:50.038Z,0.91
2023-03-11T12:39:38.230Z,0.87
2023-03-11T12:42:11.325Z,0.99
2023-03-11T12:44:42.877Z,1.05
2023-03-11T12:47:29.143Z,1.17
2023-03-11T12:50:39.662Z,1.43
2023-03-11T12:53:17.659Z,1.90
2023-03-11T12:56:16.311Z,2.69
2023-03-11T12:59:15.393Z,3.15
2023-03-11T13:02:10.624Z,3.10
2023-03-11T13:05:08.000Z,2.81
2023-03-11T13:07:58.877Z,2.86
2023-03-11T13:10:29.094Z,3.08
2023-03-11T13:12:59.714Z,3.44
2023-03-11T13:15:35.484Z,3.83
2023-03-11T13:18:11.736Z,4.00
2023-03-11T13:20:41.784Z,3.76
2023-03-11T13:23:15.171Z,3.38
2023-03-11T13:25:48.750Z,2.96
2023-03-11T13:28:55.252Z,2.55
2023-03-11T13:31:25.624Z,2.27
2023-03-11T13:34:24.997Z,2.03
2023-03-11T13:37:17.992Z,1.84
2023-03-11T13:40:14.226Z,1.65
2023-03-11T13:42:49.198Z,1.53
2023-03-11T13:45:29.828Z,1.47
2023-03-11T13:48:22.347Z,1.30
2023-03-11T13:51:15.945Z,1.33
2023-03-11T13:53:58.117Z,1.40
2023-03-11T13:56:43.780Z,1.51
2023-03-11T13:59:32.154Z,1.54
2023-03-11T14:02:08.283Z,1.52
2023-03-11T14:04:40.421Z,1.40
2023-03-11T14:07:20.572Z,1.44
2023-03-11T14:09:50.773Z,1.36
2023-03-11T14:12:20.965Z,1.34
2023-03-11T14:14:56.615Z,1.34
2023-03-11T14:17:27.026Z,1.24
2023-03-11T14:20:16.703Z,1.17
2023-03-11T14:22:49.646Z,1.21
2023-03-11T14:25:26.739Z,1.20
2023-03-11T14:27:58.304Z,1.20
2023-03-11T14:30:33.973Z,1.11
2023-03-11T14:33:18.616Z,1.10
2023-03-11T14:35:54.374Z,1.09
2023-03-11T14:38:27.760Z,1.07
2023-03-11T14:41:02.351Z,1.01
2023-03-11T14:43:41.594Z,0.90
2023-03-11T14:46:20.596Z,0.94
2023-03-11T14:48:51.684Z,0.96
2023-03-11T14:51:27.130Z,0.94
2023-03-11T14:54:15.722Z,0.93
2023-03-11T14:56:53.909Z,0.85
2023-03-11T14:59:29.191Z,0.99
2023-03-11T15:02:22.770Z,1.16
2023-03-11T15:04:54.722Z,1.17
2023-03-11T15:07:24.969Z,1.34
2023-03-11T15:09:56.425Z,1.99
2023-03-11T15:12:44.000Z,3.12
2023-03-11T15:15:23.097Z,4.81
2023-03-11T15:17:55.336Z,6.37
2023-03-11T15:20:31.391Z,6.04
2023-03-11T15:23:06.707Z,4.87
2023-03-11T15:25:39.546Z,3.96
2023-03-11T15:28:29.044Z,3.83
2023-03-11T15:31:42.772Z,4.92
2023-03-11T15:34:18.428Z,5.18
2023-03-11T15:36:48.527Z,4.43
2023-03-11T15:39:19.473Z,3.59
2023-03-11T15:42:07.967Z,2.82
2023-03-11T15:44:42.984Z,2.31
2023-03-11T15:47:19.149Z,1.94
2023-03-11T15:49:50.334Z,1.78
2023-03-11T15:52:20.784Z,1.57
2023-03-11T15:54:55.738Z,1.49
2023-03-11T15:57:28.617Z,1.48
2023-03-11T16:00:02.132Z,1.54
2023-03-11T16:02:32.794Z,1.32
2023-03-11T16:05:03.279Z,1.38
2023-03-11T16:07:39.776Z,1.28
2023-03-11T16:10:11.351Z,1.26
2023-03-11T16:12:42.811Z,1.21
2023-03-11T16:15:29.107Z,1.14
2023-03-11T16:18:01.915Z,1.01
2023-03-11T16:20:41.967Z,0.91
2023-03-11T16:23:50.140Z,0.90
2023-03-11T16:26:22.851Z,0.81
2023-03-11T16:28:53.019Z,0.79
2023-03-11T16:31:23.917Z,0.67
2023-03-11T16:33:54.201Z,0.67
2023-03-11T16:36:24.463Z,0.63
2023-03-11T16:38:54.639Z,0.56
2023-03-11T16:41:24.903Z,0.54
2023-03-11T16:43:55.224Z,0.44
2023-03-11T16:46:27.120Z,0.44
2023-03-11T16:48:57.372Z,0.46
2023-03-11T16:51:27.694Z,0.49
2023-03-11T16:53:58.081Z,0.44
2023-03-11T16:56:28.305Z,0.42
2023-03-11T16:58:58.662Z,0.44
2023-03-11T17:01:28.775Z,0.41
2023-03-11T17:03:58.946Z,0.34
2023-03-11T17:06:29.152Z,0.25
2023-03-11T17:08:59.420Z,0.22
2023-03-11T17:11:30.898Z,0.14
2023-03-11T17:14:15.460Z,-0.03
2023-03-11T17:16:46.300Z,-0.05
2023-03-11T17:19:18.563Z,-0.10
2023-03-11T17:21:48.650Z,-0.16
2023-03-11T17:24:19.444Z,-0.22
2023-03-11T17:26:49.693Z,-0.16
2023-03-11T17:29:20.041Z,-0.25
2023-03-11T17:31:50.506Z,-0.24
2023-03-11T17:34:20.947Z,-0.26
2023-03-11T17:36:51.807Z,-0.33
2023-03-11T17:39:23.444Z,-0.32
2023-03-11T17:42:01.910Z,-0.32
2023-03-11T17:44:50.217Z,-0.38
2023-03-11T17:47:26.777Z,-0.40
2023-03-11T17:49:57.005Z,-0.45
2023-03-11T17:52:27.467Z,-0.47
2023-03-11T17:54:57.956Z,-0.56
2023-03-11T17:57:28.190Z,-0.53
2023-03-11T18:00:04.331Z,-0.56
2023-03-11T18:02:34.580Z,-0.51
2023-03-11T18:05:05.195Z,-0.48
2023-03-11T18:07:39.208Z,-0.48
2023-03-11T18:10:10.967Z,-0.47
2023-03-11T18:12:45.097Z,-0.51
2023-03-11T18:15:19.351Z,-0.49
2023-03-11T18:17:49.966Z,-0.49
2023-03-11T18:20:20.622Z,-0.51
2023-03-11T18:22:52.174Z,-0.52
2023-03-11T18:25:22.274Z,-0.49
2023-03-11T18:27:52.557Z,-0.49
2023-03-11T18:30:22.794Z,-0.51
2023-03-11T18:32:53.010Z,-0.55
2023-03-11T18:35:23.360Z,-0.58
2023-03-11T18:37:53.566Z,-0.57
2023-03-11T18:40:23.852Z,-0.68
2023-03-11T18:42:54.195Z,-0.71
2023-03-11T18:45:24.550Z,-0.75
2023-03-11T18:47:54.733Z,-0.75
2023-03-11T18:50:24.958Z,-0.84
2023-03-11T18:52:55.292Z,-0.91
2023-03-11T18:55:25.608Z,-1.00
2023-03-11T18:57:55.950Z,-1.03
2023-03-11T19:00:26.256Z,-1.04
2023-03-11T19:02:56.499Z,-1.06
2023-03-11T19:05:26.678Z,-1.10
2023-03-11T19:07:59.180Z,-1.12
2023-03-11T19:10:31.032Z,-1.18
2023-03-11T19:13:04.181Z,-1.20
2023-03-11T19:15:38.241Z,-1.24
2023-03-11T19:18:09.346Z,-1.25
2023-03-11T19:20:39.628Z,-1.22
2023-03-11T19:23:10.001Z,-1.20
2023-03-11T19:25:42.569Z,-1.28
2023-03-11T19:28:16.437Z,-1.22
2023-03-11T19:30:51.993Z,-1.15
2023-03-11T19:33:23.758Z,-1.21
2023-03-11T19:35:59.667Z,-1.21
2023-03-11T19:38:34.927Z,-1.21
2023-03-11T19:41:12.031Z,-1.21
2023-03-11T19:43:42.906Z,-1.24
2023-03-11T19:46:16.503Z,-1.25
2023-03-11T19:48:47.025Z,-1.28
2023-03-11T19:51:20.135Z,-1.37
2023-03-11T19:53:50.352Z,-1.38
2023-03-11T19:56:20.471Z,-1.37
2023-03-11T19:58:50.814Z,-1.39
2023-03-11T20:01:21.276Z,-1.46
2023-03-11T20:03:52.398Z,-1.43
2023-03-11T20:06:23.038Z,-1.49
2023-03-11T20:08:53.335Z,-1.50
2023-03-11T20:11:23.489Z,-1.55
2023-03-11T20:13:53.787Z,-1.57
2023-03-11T20:16:23.957Z,-1.62
2023-03-11T20:18:54.211Z,-1.65
2023-03-11T20:21:24.347Z,-1.68
2023-03-11T20:23:55.409Z,-1.67
2023-03-11T20:26:26.830Z,-1.69
2023-03-11T20:28:57.386Z,-1.70
2023-03-11T20:31:28.813Z,-1.72
2023-03-11T20:33:59.678Z,-1.71
2023-03-11T20:36:33.268Z,-1.71
2023-03-11T20:39:06.428Z,-1.67
2023-03-11T20:41:40.558Z,-1.81
2023-03-11T20:44:13.666Z,-1.70
2023-03-11T20:46:43.983Z,-1.70
2023-03-11T20:49:14.367Z,-1.69
2023-03-11T20:51:48.258Z,-1.75
2023-03-11T20:54:18.725Z,-1.80
2023-03-11T20:56:50.763Z,-1.72
2023-03-11T20:59:21.323Z,-1.76
2023-03-11T21:01:51.492Z,-1.77
2023-03-11T21:04:24.475Z,-1.77
2023-03-11T21:06:55.679Z,-1.79
2023-03-11T21:09:26.058Z,-1.78
2023-03-11T21:11:56.527Z,-1.85
2023-03-11T21:14:26.846Z,-1.89
2023-03-11T21:16:57.052Z,-1.85
2023-03-11T21:19:27.464Z,-1.90
2023-03-11T21:21:57.953Z,-1.92
2023-03-11T21:24:28.083Z,-1.96
2023-03-11T21:26:58.338Z,-1.94
2023-03-11T21:29:30.790Z,-1.94
2023-03-11T21:32:01.587Z,-2.00
2023-03-11T21:34:31.915Z,-1.98
2023-03-11T21:37:02.219Z,-2.06
2023-03-11T21:39:32.482Z,-2.01
2023-03-11T21:42:02.765Z,-2.04
2023-03-11T21:44:33.158Z,-2.09
2023-03-11T21:47:03.532Z,-2.14
2023-03-11T21:49:34.088Z,-2.13
2023-03-11T21:52:04.958Z,-2.18
2023-03-11T21:54:35.342Z,-2.24
2023-03-11T21:57:05.570Z,-2.29
2023-03-11T21:59:35.938Z,-2.36
2023-03-11T22:02:06.823Z,-2.33
2023-03-11T22:04:37.161Z,-2.45
2023-03-11T22:07:07.631Z,-2.40
2023-03-11T22:09:38.032Z,-2.47
2023-03-11T22:12:08.491Z,-2.47
2023-03-11T22:14:38.863Z,-2.46
2023-03-11T22:17:09.265Z,-2.39
2023-03-11T22:19:39.510Z,-2.34
2023-03-11T22:22:09.661Z,-2.40
2023-03-11T22:24:39.767Z,-2.39
2023-03-11T22:27:10.105Z,-2.36
2023-03-11T22:29:40.253Z,-2.41
2023-03-11T22:32:11.015Z,-2.43
2023-03-11T22:34:41.938Z,-2.44
2023-03-11T22:37:12.549Z,-2.41
2023-03-11T22:39:43.544Z,-2.34
2023-03-11T22:42:13.822Z,-2.30
2023-03-11T22:44:44.019Z,-2.34
2023-03-11T22:47:14.703Z,-2.40
2023-03-11T22:49:45.031Z,-2.19
2023-03-11T22:52:16.267Z,-2.22
2023-03-11T22:54:47.058Z,-2.13
2023-03-11T22:57:17.592Z,-2.11
2023-03-11T22:59:47.716Z,-2.09
2023-03-11T23:02:17.995Z,-2.02
2023-03-11T23:04:48.199Z,-1.97
2023-03-11T23:07:18.293Z,-1.89
2023-03-11T23:09:48.492Z,-1.86
2023-03-11T23:12:18.633Z,-1.83
2023-03-11T23:14:48.723Z,-1.82
2023-03-11T23:17:18.876Z,-1.81
2023-03-11T23:19:49.069Z,-1.72
2023-03-11T23:22:19.225Z,-1.76
2023-03-11T23:24:49.428Z,-1.67
2023-03-11T23:27:19.917Z,-1.59
2023-03-11T23:29:50.734Z,-1.61
2023-03-11T23:32:20.990Z,-1.58
2023-03-11T23:34:51.264Z,-1.53
2023-03-11T23:37:21.514Z,-1.54
2023-03-11T23:39:52.061Z,-1.50
2023-03-11T23:42:25.784Z,-1.52
2023-03-11T23:44:56.446Z,-1.44
2023-03-11T23:47:26.770Z,-1.45
2023-03-11T23:49:56.938Z,-1.38
2023-03-11T23:52:27.085Z,-1.39
2023-03-11T23:54:57.236Z,-1.37
2023-03-11T23:57:27.712Z,-1.37
2023-03-11T23:59:58.305Z,-1.37
